Marble Point, Antarctica

7:16 AM GMT on August 01, 2015 (GMT +0000)
Williams Field | | Change Station
CLOSE
Current Station
Airport
Location: Williams Field,
Elevation: 79 ft
Nearby Weather Stations

Elev 79 ft 77.85 °S, 166.67 °E | Updated 1 hour ago

Ice Crystals
Ice Crystals Blowing Snow
-27 °F
Feels Like -62 °F
N
28
Wind Variable Wind from ENE
Gusts 37 mph

Today
High -- | Low -- °F
--% Chance of Precip.
Yesterday
High -- | Low -- °F
Precip. -- in
0:00 AM 0:00 AM
Full, 99% visible
Pressure 29.42 in
Visibility 1.0 miles
Clouds
Windchill -62 °F
Dew Point -33 °F
Humidity 75%
Rainfall 0.00 in
Snow Depth Not available.
UV Not available.
Pollen Not available.
Air Quality Not available.
Flu Activity Not available.
METAR NZCM 010555Z 06024G32KT 1600 IC BLSN SCT000 M33/M36 A2939 RMK PK WND 05035/27 ICB0215 BLSN SCT000 SLP961

More Conditions Fewer Conditions

Pressure 29.42 in
Visibility 1.0 miles
Clouds
Windchill -62 °F
Dew Point -33 °F
Humidity 75%
Rainfall 0.00 in
Snow Depth Not available.
UV Not available.
Pollen Not available.
Air Quality Not available.
Flu Activity Not available.
METAR NZCM 010555Z 06024G32KT 1600 IC BLSN SCT000 M33/M36 A2939 RMK PK WND 05035/27 ICB0215 BLSN SCT000 SLP961

More Conditions Fewer Conditions

10-Day Weather Forecast

×

Almanac

Astronomy

Aug. 01, 2015 Rise Set
Actual Time
Civil Twilight
Nautical Twilight
Astronomical Twilight
Moon
Length of Visible Light
Length of Day
Tomorrow will be .
, % of the Moon is Illuminated

Today's Extremes

Country Highs Country Lows

Community

WunderPhotos

Upload Photos

1,842,899 photos uploaded!

WunderBlogs® & News

Nearby

Air Quality

  Air Quality AQ Index Pollutant
Not available.

Snow Depth

Station Depth Elevation

Earthquake Activity

City Distance Mag. Time & Date
Minimum magnitude displayed is 2.5.

Coastal Water Temperatures

Place Temperature

Stations

Nearby Weather Stations

Station Location Temp. Windchill Dew Point Humidity Wind Precip. Elev Updated Type